sensor_id;sensor_type;location;lat;lon;timestamp;pressure;altitude;pressure_sealevel;temperature;humidity
19576;BME280;41589;51.196;7.074;2023-03-20T00:03:50;99253.63;;;10.48;70.32
19576;BME280;41589;51.196;7.074;2023-03-20T00:08:52;99248.78;;;10.49;70.33
19576;BME280;41589;51.196;7.074;2023-03-20T00:13:55;99259.59;;;10.50;70.05
19576;BME280;41589;51.196;7.074;2023-03-20T00:18:56;99261.59;;;10.40;69.66
19576;BME280;41589;51.196;7.074;2023-03-20T00:23:58;99269.03;;;10.34;69.55
19576;BME280;41589;51.196;7.074;2023-03-20T00:28:58;99273.78;;;10.25;69.84
19576;BME280;41589;51.196;7.074;2023-03-20T00:34:01;99261.63;;;10.28;69.71
19576;BME280;41589;51.196;7.074;2023-03-20T00:39:03;99255.28;;;10.14;69.84
19576;BME280;41589;51.196;7.074;2023-03-20T00:44:20;99262.72;;;10.08;69.96
19576;BME280;41589;51.196;7.074;2023-03-20T00:49:25;99271.38;;;10.14;69.84
19576;BME280;41589;51.196;7.074;2023-03-20T00:54:27;99283.53;;;10.11;69.65
19576;BME280;41589;51.196;7.074;2023-03-20T00:59:30;99273.63;;;10.06;69.31
19576;BME280;41589;51.196;7.074;2023-03-20T01:04:35;99270.97;;;10.03;68.92
19576;BME280;41589;51.196;7.074;2023-03-20T01:09:36;99274.25;;;10.01;69.17
19576;BME280;41589;51.196;7.074;2023-03-20T01:14:36;99263.56;;;9.96;69.14
19576;BME280;41589;51.196;7.074;2023-03-20T01:19:37;99264.22;;;10.00;69.18
19576;BME280;41589;51.196;7.074;2023-03-20T01:24:37;99265.22;;;10.06;68.45
19576;BME280;41589;51.196;7.074;2023-03-20T01:29:37;99261.94;;;10.08;68.57
19576;BME280;41589;51.196;7.074;2023-03-20T01:34:38;99261.03;;;10.11;68.17
19576;BME280;41589;51.196;7.074;2023-03-20T01:39:40;99250.66;;;10.21;67.69
19576;BME280;41589;51.196;7.074;2023-03-20T01:44:40;99241.16;;;10.27;67.26
19576;BME280;41589;51.196;7.074;2023-03-20T01:50:18;99253.47;;;10.21;67.10
19576;BME280;41589;51.196;7.074;2023-03-20T01:55:22;99254.56;;;10.23;67.62
19576;BME280;41589;51.196;7.074;2023-03-20T02:00:30;99255.22;;;10.27;67.13
19576;BME280;41589;51.196;7.074;2023-03-20T02:05:31;99257.91;;;10.31;66.94
19576;BME280;41589;51.196;7.074;2023-03-20T02:10:32;99245.34;;;10.23;66.66
19576;BME280;41589;51.196;7.074;2023-03-20T02:16:29;99267.00;;;10.13;66.78
19576;BME280;41589;51.196;7.074;2023-03-20T02:27:29;99260.44;;;10.16;67.38
19576;BME280;41589;51.196;7.074;2023-03-20T02:32:52;99249.50;;;10.18;67.30
19576;BME280;41589;51.196;7.074;2023-03-20T02:38:02;99241.94;;;10.28;66.79
19576;BME280;41589;51.196;7.074;2023-03-20T02:43:19;99232.84;;;10.24;66.96
19576;BME280;41589;51.196;7.074;2023-03-20T02:48:35;99247.63;;;10.15;66.32
19576;BME280;41589;51.196;7.074;2023-03-20T03:04:30;99282.16;;;10.16;66.91
19576;BME280;41589;51.196;7.074;2023-03-20T03:09:37;99276.44;;;10.06;67.09
19576;BME280;41589;51.196;7.074;2023-03-20T03:14:54;99287.59;;;10.10;67.48
19576;BME280;41589;51.196;7.074;2023-03-20T03:20:00;99265.75;;;10.14;67.16
19576;BME280;41589;51.196;7.074;2023-03-20T03:25:08;99297.94;;;10.13;67.21
19576;BME280;41589;51.196;7.074;2023-03-20T03:30:17;99277.13;;;10.10;67.17
19576;BME280;41589;51.196;7.074;2023-03-20T03:35:21;99246.25;;;10.20;67.24
19576;BME280;41589;51.196;7.074;2023-03-20T03:40:33;99245.28;;;10.13;66.46
19576;BME280;41589;51.196;7.074;2023-03-20T03:45:43;99245.44;;;10.19;66.69
19576;BME280;41589;51.196;7.074;2023-03-20T03:51:00;99220.03;;;10.23;66.29
19576;BME280;41589;51.196;7.074;2023-03-20T03:56:09;99224.94;;;10.31;65.86
19576;BME280;41589;51.196;7.074;2023-03-20T04:01:12;99233.88;;;10.17;65.69
19576;BME280;41589;51.196;7.074;2023-03-20T04:06:15;99249.56;;;10.05;65.69
19576;BME280;41589;51.196;7.074;2023-03-20T04:11:21;99245.34;;;10.01;65.95
19576;BME280;41589;51.196;7.074;2023-03-20T04:16:23;99251.84;;;9.98;66.32
19576;BME280;41589;51.196;7.074;2023-03-20T04:21:25;99268.66;;;9.89;66.33
19576;BME280;41589;51.196;7.074;2023-03-20T04:26:25;99275.31;;;9.82;66.90
19576;BME280;41589;51.196;7.074;2023-03-20T04:31:26;99264.25;;;9.88;66.68
19576;BME280;41589;51.196;7.074;2023-03-20T04:36:48;99261.91;;;9.86;66.91
19576;BME280;41589;51.196;7.074;2023-03-20T04:41:51;99242.31;;;9.95;66.76
19576;BME280;41589;51.196;7.074;2023-03-20T04:46:51;99235.75;;;9.98;66.69
19576;BME280;41589;51.196;7.074;2023-03-20T04:51:54;99244.13;;;9.89;66.25
19576;BME280;41589;51.196;7.074;2023-03-20T04:57:08;99232.63;;;9.96;66.75
19576;BME280;41589;51.196;7.074;2023-03-20T05:02:10;99231.28;;;10.01;66.40
19576;BME280;41589;51.196;7.074;2023-03-20T05:07:14;99225.44;;;9.95;65.93
19576;BME280;41589;51.196;7.074;2023-03-20T05:12:27;99219.63;;;9.90;66.06
19576;BME280;41589;51.196;7.074;2023-03-20T05:17:47;99211.44;;;9.70;65.94
19576;BME280;41589;51.196;7.074;2023-03-20T05:23:07;99209.13;;;9.55;66.09
19576;BME280;41589;51.196;7.074;2023-03-20T05:28:28;99213.44;;;9.47;65.87
19576;BME280;41589;51.196;7.074;2023-03-20T05:34:00;99216.69;;;9.33;65.74
19576;BME280;41589;51.196;7.074;2023-03-20T05:39:24;99238.50;;;9.29;65.68
19576;BME280;41589;51.196;7.074;2023-03-20T05:44:41;99258.72;;;9.24;66.16
19576;BME280;41589;51.196;7.074;2023-03-20T05:50:17;99262.31;;;9.24;65.76
19576;BME280;41589;51.196;7.074;2023-03-20T05:55:25;99257.06;;;9.26;65.84
19576;BME280;41589;51.196;7.074;2023-03-20T06:00:45;99249.06;;;9.25;66.29
19576;BME280;41589;51.196;7.074;2023-03-20T06:06:24;99249.28;;;9.43;66.76
19576;BME280;41589;51.196;7.074;2023-03-20T06:11:25;99251.28;;;9.43;66.23
19576;BME280;41589;51.196;7.074;2023-03-20T06:16:26;99249.50;;;9.49;66.51
19576;BME280;41589;51.196;7.074;2023-03-20T06:21:35;99259.81;;;9.52;66.10
19576;BME280;41589;51.196;7.074;2023-03-20T06:26:39;99234.16;;;9.63;66.49
19576;BME280;41589;51.196;7.074;2023-03-20T06:31:58;99241.69;;;9.66;66.11
19576;BME280;41589;51.196;7.074;2023-03-20T06:37:09;99245.63;;;9.81;66.30
19576;BME280;41589;51.196;7.074;2023-03-20T06:42:39;99248.97;;;9.89;65.90
19576;BME280;41589;51.196;7.074;2023-03-20T06:47:41;99253.22;;;9.93;65.95
19576;BME280;41589;51.196;7.074;2023-03-20T06:52:46;99261.34;;;9.91;65.96
19576;BME280;41589;51.196;7.074;2023-03-20T06:58:10;99273.13;;;9.99;65.66
19576;BME280;41589;51.196;7.074;2023-03-20T07:03:18;99287.28;;;9.95;65.77
19576;BME280;41589;51.196;7.074;2023-03-20T07:08:21;99294.72;;;10.02;65.57
19576;BME280;41589;51.196;7.074;2023-03-20T07:13:26;99295.69;;;10.08;65.24
19576;BME280;41589;51.196;7.074;2023-03-20T07:18:29;99312.03;;;10.00;64.76
19576;BME280;41589;51.196;7.074;2023-03-20T07:23:32;99297.72;;;10.07;65.19
19576;BME280;41589;51.196;7.074;2023-03-20T07:28:37;99298.19;;;10.28;64.58
19576;BME280;41589;51.196;7.074;2023-03-20T07:33:59;99303.19;;;10.46;64.15
19576;BME280;41589;51.196;7.074;2023-03-20T07:38:59;99301.41;;;10.61;63.44
19576;BME280;41589;51.196;7.074;2023-03-20T07:44:02;99287.38;;;10.70;62.97
19576;BME280;41589;51.196;7.074;2023-03-20T07:49:15;99302.66;;;10.60;61.76
19576;BME280;41589;51.196;7.074;2023-03-20T07:54:19;99305.28;;;10.76;61.35
19576;BME280;41589;51.196;7.074;2023-03-20T07:59:20;99317.63;;;10.79;60.61
19576;BME280;41589;51.196;7.074;2023-03-20T08:04:20;99314.75;;;10.69;60.44
19576;BME280;41589;51.196;7.074;2023-03-20T08:09:25;99323.59;;;10.59;59.41
19576;BME280;41589;51.196;7.074;2023-03-20T08:14:26;99330.28;;;10.52;59.38
19576;BME280;41589;51.196;7.074;2023-03-20T08:19:26;99324.78;;;10.49;59.98
19576;BME280;41589;51.196;7.074;2023-03-20T08:24:27;99329.50;;;10.52;59.58
19576;BME280;41589;51.196;7.074;2023-03-20T08:29:27;99329.22;;;10.59;58.95
19576;BME280;41589;51.196;7.074;2023-03-20T08:34:30;99341.09;;;10.54;58.57
19576;BME280;41589;51.196;7.074;2023-03-20T08:39:31;99344.03;;;10.50;58.46
19576;BME280;41589;51.196;7.074;2023-03-20T08:44:32;99338.41;;;10.72;57.78
19576;BME280;41589;51.196;7.074;2023-03-20T08:49:33;99344.84;;;10.73;57.15
19576;BME280;41589;51.196;7.074;2023-03-20T08:54:33;99347.09;;;10.87;57.66
19576;BME280;41589;51.196;7.074;2023-03-20T08:59:34;99332.81;;;11.03;57.31
19576;BME280;41589;51.196;7.074;2023-03-20T09:04:34;99336.88;;;11.24;56.41
19576;BME280;41589;51.196;7.074;2023-03-20T09:09:35;99330.03;;;11.34;55.96
19576;BME280;41589;51.196;7.074;2023-03-20T09:14:36;99339.94;;;11.48;55.39
19576;BME280;41589;51.196;7.074;2023-03-20T09:19:37;99343.97;;;11.38;54.50
19576;BME280;41589;51.196;7.074;2023-03-20T09:24:44;99351.69;;;11.46;54.24
19576;BME280;41589;51.196;7.074;2023-03-20T09:29:44;99349.25;;;11.26;53.95
19576;BME280;41589;51.196;7.074;2023-03-20T09:34:46;99337.47;;;10.97;53.29
19576;BME280;41589;51.196;7.074;2023-03-20T09:39:46;99346.66;;;10.88;53.19
19576;BME280;41589;51.196;7.074;2023-03-20T09:45:15;99326.25;;;11.06;53.37
19576;BME280;41589;51.196;7.074;2023-03-20T09:55:38;99334.25;;;11.39;52.79
19576;BME280;41589;51.196;7.074;2023-03-20T10:00:44;99332.94;;;11.21;51.97
19576;BME280;41589;51.196;7.074;2023-03-20T10:05:49;99330.09;;;11.21;52.46
19576;BME280;41589;51.196;7.074;2023-03-20T10:16:50;99341.84;;;11.20;52.33
19576;BME280;41589;51.196;7.074;2023-03-20T10:21:48;99339.13;;;11.38;51.03
19576;BME280;41589;51.196;7.074;2023-03-20T10:26:52;99341.56;;;11.58;50.67
19576;BME280;41589;51.196;7.074;2023-03-20T10:32:04;99342.66;;;11.61;49.37
19576;BME280;41589;51.196;7.074;2023-03-20T10:42:16;99335.44;;;11.19;49.38
19576;BME280;41589;51.196;7.074;2023-03-20T10:47:20;99323.75;;;11.30;49.52
19576;BME280;41589;51.196;7.074;2023-03-20T10:52:26;99314.66;;;11.26;49.04
19576;BME280;41589;51.196;7.074;2023-03-20T10:57:29;99318.13;;;11.39;48.21
19576;BME280;41589;51.196;7.074;2023-03-20T11:02:35;99313.94;;;11.53;48.42
19576;BME280;41589;51.196;7.074;2023-03-20T11:07:38;99317.91;;;11.65;48.25
19576;BME280;41589;51.196;7.074;2023-03-20T11:12:42;99309.63;;;11.70;48.03
19576;BME280;41589;51.196;7.074;2023-03-20T11:17:50;99300.44;;;11.97;48.88
19576;BME280;41589;51.196;7.074;2023-03-20T11:22:57;99300.91;;;12.05;47.33
19576;BME280;41589;51.196;7.074;2023-03-20T11:33:19;99293.66;;;11.85;47.07
19576;BME280;41589;51.196;7.074;2023-03-20T11:38:20;99294.47;;;11.95;47.70
19576;BME280;41589;51.196;7.074;2023-03-20T11:43:24;99292.09;;;11.84;48.08
19576;BME280;41589;51.196;7.074;2023-03-20T11:48:36;99290.19;;;11.72;49.07
19576;BME280;41589;51.196;7.074;2023-03-20T12:09:02;99283.50;;;11.79;50.24
19576;BME280;41589;51.196;7.074;2023-03-20T12:14:09;99278.28;;;11.68;49.69
19576;BME280;41589;51.196;7.074;2023-03-20T12:19:16;99271.63;;;11.35;50.41
19576;BME280;41589;51.196;7.074;2023-03-20T12:24:36;99271.03;;;11.09;50.90
19576;BME280;41589;51.196;7.074;2023-03-20T12:29:57;99291.84;;;10.80;51.43
19576;BME280;41589;51.196;7.074;2023-03-20T12:35:05;99280.81;;;10.64;52.19
19576;BME280;41589;51.196;7.074;2023-03-20T12:40:17;99278.25;;;10.57;52.46
19576;BME280;41589;51.196;7.074;2023-03-20T12:45:25;99275.09;;;10.77;53.13
19576;BME280;41589;51.196;7.074;2023-03-20T13:11:49;99259.94;;;10.52;55.95
19576;BME280;41589;51.196;7.074;2023-03-20T13:22:06;99253.06;;;11.15;55.62
19576;BME280;41589;51.196;7.074;2023-03-20T13:27:32;99250.47;;;11.30;54.30
19576;BME280;41589;51.196;7.074;2023-03-20T13:37:50;99241.84;;;11.24;53.48
19576;BME280;41589;51.196;7.074;2023-03-20T13:42:54;99238.84;;;11.19;52.37
19576;BME280;41589;51.196;7.074;2023-03-20T13:48:00;99241.84;;;11.24;52.06
19576;BME280;41589;51.196;7.074;2023-03-20T13:53:20;99220.59;;;11.42;52.24
19576;BME280;41589;51.196;7.074;2023-03-20T13:58:48;99220.00;;;11.56;51.91
19576;BME280;41589;51.196;7.074;2023-03-20T14:03:52;99213.44;;;11.68;51.63
19576;BME280;41589;51.196;7.074;2023-03-20T14:08:53;99212.78;;;11.64;51.61
19576;BME280;41589;51.196;7.074;2023-03-20T14:13:56;99215.31;;;11.71;51.52
19576;BME280;41589;51.196;7.074;2023-03-20T14:19:16;99216.75;;;11.67;51.40
19576;BME280;41589;51.196;7.074;2023-03-20T14:24:17;99214.84;;;11.73;51.51
19576;BME280;41589;51.196;7.074;2023-03-20T14:29:30;99213.47;;;11.77;51.43
19576;BME280;41589;51.196;7.074;2023-03-20T14:34:57;99216.28;;;11.77;51.49
19576;BME280;41589;51.196;7.074;2023-03-20T14:40:16;99206.69;;;11.84;51.54
19576;BME280;41589;51.196;7.074;2023-03-20T14:45:24;99200.94;;;11.88;52.03
19576;BME280;41589;51.196;7.074;2023-03-20T14:50:32;99203.59;;;11.91;51.50
19576;BME280;41589;51.196;7.074;2023-03-20T14:55:50;99181.19;;;11.97;51.87
19576;BME280;41589;51.196;7.074;2023-03-20T15:00:51;99181.16;;;12.06;51.97
19576;BME280;41589;51.196;7.074;2023-03-20T15:05:56;99190.72;;;12.18;52.25
19576;BME280;41589;51.196;7.074;2023-03-20T15:11:09;99192.28;;;12.09;51.65
19576;BME280;41589;51.196;7.074;2023-03-20T15:16:13;99190.72;;;12.18;51.47
19576;BME280;41589;51.196;7.074;2023-03-20T15:21:34;99189.00;;;12.20;51.36
19576;BME280;41589;51.196;7.074;2023-03-20T15:26:36;99187.75;;;12.12;51.57
19576;BME280;41589;51.196;7.074;2023-03-20T15:31:38;99188.34;;;12.16;51.69
19576;BME280;41589;51.196;7.074;2023-03-20T15:36:38;99184.75;;;12.15;51.60
19576;BME280;41589;51.196;7.074;2023-03-20T15:41:44;99171.91;;;12.05;52.05
19576;BME280;41589;51.196;7.074;2023-03-20T15:51:57;99167.69;;;12.10;51.61
19576;BME280;41589;51.196;7.074;2023-03-20T15:56:58;99151.06;;;12.12;51.66
19576;BME280;41589;51.196;7.074;2023-03-20T16:02:02;99155.13;;;12.20;51.76
19576;BME280;41589;51.196;7.074;2023-03-20T16:07:03;99157.97;;;12.02;51.74
19576;BME280;41589;51.196;7.074;2023-03-20T16:12:14;99144.19;;;11.85;52.06
19576;BME280;41589;51.196;7.074;2023-03-20T16:17:16;99140.56;;;12.03;52.58
19576;BME280;41589;51.196;7.074;2023-03-20T16:22:22;99142.59;;;12.03;52.18
19576;BME280;41589;51.196;7.074;2023-03-20T16:27:33;99131.81;;;12.01;52.44
19576;BME280;41589;51.196;7.074;2023-03-20T16:32:40;99129.28;;;12.12;52.55
19576;BME280;41589;51.196;7.074;2023-03-20T16:37:47;99128.19;;;12.10;52.31
19576;BME280;41589;51.196;7.074;2023-03-20T16:42:48;99141.03;;;12.11;52.08
19576;BME280;41589;51.196;7.074;2023-03-20T16:47:49;99142.78;;;11.99;52.19
19576;BME280;41589;51.196;7.074;2023-03-20T16:52:55;99150.16;;;11.88;52.39
19576;BME280;41589;51.196;7.074;2023-03-20T16:57:58;99148.59;;;11.86;52.66
19576;BME280;41589;51.196;7.074;2023-03-20T17:03:12;99138.09;;;11.78;52.78
19576;BME280;41589;51.196;7.074;2023-03-20T17:08:16;99133.25;;;11.69;52.70
19576;BME280;41589;51.196;7.074;2023-03-20T17:13:21;99126.66;;;11.63;52.50
19576;BME280;41589;51.196;7.074;2023-03-20T17:18:21;99136.34;;;11.53;52.84
19576;BME280;41589;51.196;7.074;2023-03-20T17:23:22;99128.84;;;11.59;52.67
19576;BME280;41589;51.196;7.074;2023-03-20T17:28:27;99141.38;;;11.58;52.40
19576;BME280;41589;51.196;7.074;2023-03-20T17:33:31;99151.56;;;11.65;52.20
19576;BME280;41589;51.196;7.074;2023-03-20T17:38:32;99151.72;;;11.70;52.47
19576;BME280;41589;51.196;7.074;2023-03-20T17:43:32;99154.22;;;11.68;52.22
19576;BME280;41589;51.196;7.074;2023-03-20T17:48:32;99143.25;;;11.70;51.90
19576;BME280;41589;51.196;7.074;2023-03-20T17:53:33;99153.75;;;11.79;51.87
19576;BME280;41589;51.196;7.074;2023-03-20T17:58:33;99164.56;;;11.71;51.66
19576;BME280;41589;51.196;7.074;2023-03-20T18:03:34;99167.38;;;11.71;51.84
19576;BME280;41589;51.196;7.074;2023-03-20T18:08:35;99167.56;;;11.68;51.92
19576;BME280;41589;51.196;7.074;2023-03-20T18:13:37;99168.00;;;11.57;51.38
19576;BME280;41589;51.196;7.074;2023-03-20T18:18:37;99166.28;;;11.50;51.75
19576;BME280;41589;51.196;7.074;2023-03-20T18:23:38;99173.19;;;11.58;51.78
19576;BME280;41589;51.196;7.074;2023-03-20T18:28:38;99169.88;;;11.51;51.68
19576;BME280;41589;51.196;7.074;2023-03-20T18:33:39;99169.56;;;11.58;52.17
19576;BME280;41589;51.196;7.074;2023-03-20T18:38:39;99177.72;;;11.47;52.36
19576;BME280;41589;51.196;7.074;2023-03-20T18:43:40;99166.59;;;11.52;52.42
19576;BME280;41589;51.196;7.074;2023-03-20T18:48:41;99168.16;;;11.53;52.37
19576;BME280;41589;51.196;7.074;2023-03-20T18:53:41;99162.06;;;11.55;52.31
19576;BME280;41589;51.196;7.074;2023-03-20T18:58:43;99165.19;;;11.57;52.73
19576;BME280;41589;51.196;7.074;2023-03-20T19:03:44;99161.75;;;11.62;52.50
19576;BME280;41589;51.196;7.074;2023-03-20T19:08:46;99164.88;;;11.73;52.18
19576;BME280;41589;51.196;7.074;2023-03-20T19:13:50;99163.78;;;11.80;51.97
19576;BME280;41589;51.196;7.074;2023-03-20T19:18:59;99171.16;;;11.77;51.74
19576;BME280;41589;51.196;7.074;2023-03-20T19:24:02;99158.75;;;11.75;51.61
19576;BME280;41589;51.196;7.074;2023-03-20T19:29:06;99157.66;;;11.81;51.37
19576;BME280;41589;51.196;7.074;2023-03-20T19:34:09;99145.59;;;11.72;51.42
19576;BME280;41589;51.196;7.074;2023-03-20T19:39:11;99162.84;;;11.74;51.16
19576;BME280;41589;51.196;7.074;2023-03-20T19:44:13;99146.56;;;11.87;51.18
19576;BME280;41589;51.196;7.074;2023-03-20T19:49:19;99145.00;;;11.77;51.00
19576;BME280;41589;51.196;7.074;2023-03-20T19:54:19;99145.31;;;11.79;50.86
19576;BME280;41589;51.196;7.074;2023-03-20T19:59:20;99152.50;;;11.80;50.72
19576;BME280;41589;51.196;7.074;2023-03-20T20:04:20;99145.31;;;11.79;50.66
19576;BME280;41589;51.196;7.074;2023-03-20T20:09:32;99137.94;;;11.72;51.24
19576;BME280;41589;51.196;7.074;2023-03-20T20:14:33;99127.59;;;11.88;51.12
19576;BME280;41589;51.196;7.074;2023-03-20T20:19:33;99132.91;;;11.95;50.91
19576;BME280;41589;51.196;7.074;2023-03-20T20:24:33;99121.47;;;11.89;50.60
19576;BME280;41589;51.196;7.074;2023-03-20T20:29:34;99133.25;;;11.88;50.87
19576;BME280;41589;51.196;7.074;2023-03-20T20:34:35;99130.91;;;11.86;50.82
19576;BME280;41589;51.196;7.074;2023-03-20T20:39:37;99127.59;;;11.88;50.95
19576;BME280;41589;51.196;7.074;2023-03-20T20:44:39;99131.19;;;11.97;50.60
19576;BME280;41589;51.196;7.074;2023-03-20T20:49:40;99125.09;;;11.90;50.80
19576;BME280;41589;51.196;7.074;2023-03-20T20:54:40;99127.59;;;11.88;50.55
19576;BME280;41589;51.196;7.074;2023-03-20T20:59:41;99122.56;;;11.82;50.87
19576;BME280;41589;51.196;7.074;2023-03-20T21:04:42;99128.84;;;11.86;50.58
19576;BME280;41589;51.196;7.074;2023-03-20T21:09:42;99125.84;;;11.99;50.53
19576;BME280;41589;51.196;7.074;2023-03-20T21:14:43;99126.16;;;12.10;50.31
19576;BME280;41589;51.196;7.074;2023-03-20T21:19:43;99128.81;;;12.05;50.24
19576;BME280;41589;51.196;7.074;2023-03-20T21:24:43;99132.41;;;12.05;49.86
19576;BME280;41589;51.196;7.074;2023-03-20T21:29:45;99133.53;;;11.99;50.04
19576;BME280;41589;51.196;7.074;2023-03-20T21:34:49;99126.16;;;12.01;50.15
19576;BME280;41589;51.196;7.074;2023-03-20T21:39:50;99125.38;;;12.01;50.34
19576;BME280;41589;51.196;7.074;2023-03-20T21:44:51;99133.84;;;12.01;50.25
19576;BME280;41589;51.196;7.074;2023-03-20T21:49:51;99130.53;;;12.02;50.19
19576;BME280;41589;51.196;7.074;2023-03-20T21:54:52;99133.53;;;11.99;50.31
19576;BME280;41589;51.196;7.074;2023-03-20T21:59:52;99127.25;;;12.04;50.08
19576;BME280;41589;51.196;7.074;2023-03-20T22:04:53;99116.44;;;12.02;50.65
19576;BME280;41589;51.196;7.074;2023-03-20T22:09:54;99125.50;;;12.06;50.46
19576;BME280;41589;51.196;7.074;2023-03-20T22:14:55;99121.28;;;12.11;50.38
19576;BME280;41589;51.196;7.074;2023-03-20T22:19:55;99126.63;;;12.09;50.72
19576;BME280;41589;51.196;7.074;2023-03-20T22:24:55;99145.91;;;12.10;50.47
19576;BME280;41589;51.196;7.074;2023-03-20T22:29:56;99148.25;;;12.12;50.41
19576;BME280;41589;51.196;7.074;2023-03-20T22:34:56;99140.25;;;12.01;50.66
19576;BME280;41589;51.196;7.074;2023-03-20T22:39:57;99133.53;;;11.99;51.31
19576;BME280;41589;51.196;7.074;2023-03-20T22:44:57;99128.50;;;12.12;51.21
19576;BME280;41589;51.196;7.074;2023-03-20T22:49:57;99124.38;;;12.22;51.26
19576;BME280;41589;51.196;7.074;2023-03-20T22:54:58;99126.59;;;12.18;51.25
19576;BME280;41589;51.196;7.074;2023-03-20T22:59:58;99114.66;;;12.23;51.06
19576;BME280;41589;51.196;7.074;2023-03-20T23:04:59;99107.16;;;12.20;50.85
19576;BME280;41589;51.196;7.074;2023-03-20T23:09:59;99109.34;;;12.16;51.10
19576;BME280;41589;51.196;7.074;2023-03-20T23:15:00;99107.94;;;12.21;50.93
19576;BME280;41589;51.196;7.074;2023-03-20T23:20:00;99097.44;;;12.21;50.91
19576;BME280;41589;51.196;7.074;2023-03-20T23:25:01;99094.59;;;12.21;51.08
19576;BME280;41589;51.196;7.074;2023-03-20T23:30:03;99101.66;;;12.16;51.16
19576;BME280;41589;51.196;7.074;2023-03-20T23:35:04;99099.31;;;12.15;51.21
19576;BME280;41589;51.196;7.074;2023-03-20T23:40:05;99100.88;;;12.16;51.30
19576;BME280;41589;51.196;7.074;2023-03-20T23:45:06;99091.66;;;12.06;51.35
19576;BME280;41589;51.196;7.074;2023-03-20T23:50:07;99084.78;;;12.07;51.60
19576;BME280;41589;51.196;7.074;2023-03-20T23:55:08;99069.84;;;12.16;51.64
